createdAt,value
2023-02-17T00:01:36.688Z,43.33
2023-02-17T00:04:05.408Z,40.55
2023-02-17T00:06:35.691Z,36.00
2023-02-17T00:09:04.299Z,36.30
2023-02-17T00:11:32.743Z,35.40
2023-02-17T00:14:01.073Z,34.05
2023-02-17T00:16:30.242Z,31.58
2023-02-17T00:19:02.875Z,34.47
2023-02-17T00:21:33.269Z,29.65
2023-02-17T00:24:01.854Z,31.25
2023-02-17T00:26:30.362Z,31.08
2023-02-17T00:28:59.357Z,26.60
2023-02-17T00:31:27.959Z,26.58
2023-02-17T00:33:56.996Z,25.75
2023-02-17T00:36:26.974Z,24.10
2023-02-17T00:38:57.209Z,25.63
2023-02-17T00:41:29.152Z,22.92
2023-02-17T00:43:59.223Z,22.23
2023-02-17T00:46:28.129Z,21.80
2023-02-17T00:48:56.758Z,23.48
2023-02-17T00:51:25.831Z,23.23
2023-02-17T00:53:54.136Z,22.35
2023-02-17T00:56:22.376Z,21.95
2023-02-17T00:58:50.632Z,22.70
2023-02-17T01:01:19.144Z,22.70
2023-02-17T01:03:47.524Z,24.35
2023-02-17T01:06:24.708Z,38.05
2023-02-17T01:08:53.192Z,38.78
2023-02-17T01:11:24.895Z,33.22
2023-02-17T01:13:53.548Z,31.33
2023-02-17T01:16:30.421Z,36.92
2023-02-17T01:19:00.362Z,31.67
2023-02-17T01:21:31.224Z,31.98
2023-02-17T01:24:02.363Z,30.88
2023-02-17T01:26:32.240Z,31.58
2023-02-17T01:29:03.573Z,33.85
2023-02-17T01:31:31.966Z,32.58
2023-02-17T01:34:02.415Z,30.67
2023-02-17T01:36:30.936Z,29.08
2023-02-17T01:39:00.639Z,26.73
2023-02-17T01:41:29.770Z,28.40
2023-02-17T01:44:20.920Z,30.40
2023-02-17T01:46:51.480Z,33.03
2023-02-17T01:49:43.742Z,33.08
2023-02-17T01:52:24.779Z,33.85
2023-02-17T01:55:01.001Z,34.70
2023-02-17T01:57:32.338Z,35.95
2023-02-17T02:00:01.334Z,35.57
2023-02-17T02:02:42.590Z,36.42
2023-02-17T02:05:15.582Z,35.15
2023-02-17T02:07:47.038Z,30.33
2023-02-17T02:10:18.559Z,27.90
2023-02-17T02:12:47.111Z,27.42
2023-02-17T02:15:21.788Z,27.75
2023-02-17T02:18:08.542Z,25.67
2023-02-17T02:20:48.189Z,27.77
2023-02-17T02:23:49.105Z,29.95
2023-02-17T02:26:54.447Z,27.13
2023-02-17T02:29:57.373Z,28.98
2023-02-17T02:35:39.464Z,26.10
2023-02-17T02:38:15.271Z,25.90
2023-02-17T02:40:53.286Z,27.70
2023-02-17T02:43:27.819Z,28.30
2023-02-17T02:45:56.341Z,29.08
2023-02-17T02:48:25.901Z,27.38
2023-02-17T02:51:13.899Z,27.75
2023-02-17T02:53:51.167Z,29.65
2023-02-17T02:56:42.346Z,31.80
2023-02-17T02:59:58.552Z,28.17
2023-02-17T03:02:44.150Z,29.08
2023-02-17T03:05:27.145Z,28.75
2023-02-17T03:08:10.376Z,24.63
2023-02-17T03:10:47.210Z,24.48
2023-02-17T03:13:16.074Z,23.08
2023-02-17T03:15:44.882Z,23.00
2023-02-17T03:18:13.559Z,22.85
2023-02-17T03:20:52.485Z,23.73
2023-02-17T03:23:20.849Z,24.27
2023-02-17T03:25:50.252Z,24.17
2023-02-17T03:28:18.663Z,23.33
2023-02-17T03:30:47.965Z,23.23
2023-02-17T03:33:16.322Z,20.75
2023-02-17T03:35:44.507Z,21.58
2023-02-17T03:38:12.751Z,22.50
2023-02-17T03:40:41.112Z,24.42
2023-02-17T03:43:09.390Z,32.05
2023-02-17T03:45:38.077Z,23.80
2023-02-17T03:48:07.653Z,23.08
2023-02-17T03:50:35.995Z,22.10
2023-02-17T03:53:04.234Z,23.20
2023-02-17T03:55:32.474Z,22.88
2023-02-17T03:58:00.733Z,23.20
2023-02-17T04:00:29.132Z,23.35
2023-02-17T04:02:57.527Z,25.48
2023-02-17T04:05:26.084Z,25.63
2023-02-17T04:07:54.301Z,26.67
2023-02-17T04:10:25.512Z,26.55
2023-02-17T04:12:54.071Z,24.87
2023-02-17T04:15:22.252Z,24.00
2023-02-17T04:17:50.456Z,26.65
2023-02-17T04:20:18.976Z,30.42
2023-02-17T04:22:47.288Z,30.08
2023-02-17T04:25:15.513Z,33.55
2023-02-17T04:27:43.873Z,37.40
2023-02-17T04:30:12.788Z,37.17
2023-02-17T04:32:41.031Z,25.40
2023-02-17T04:35:09.420Z,20.13
2023-02-17T04:37:37.596Z,20.40
2023-02-17T04:40:06.912Z,19.38
2023-02-17T04:42:35.159Z,21.65
2023-02-17T04:45:04.266Z,20.20
2023-02-17T04:47:32.486Z,19.92
2023-02-17T04:50:00.827Z,20.17
2023-02-17T04:52:29.223Z,19.95
2023-02-17T04:54:57.616Z,21.10
2023-02-17T04:57:25.878Z,18.65
2023-02-17T04:59:54.142Z,21.90
2023-02-17T05:02:22.455Z,21.50
2023-02-17T05:18:10.656Z,18.45
2023-02-17T05:20:41.199Z,20.08
2023-02-17T05:23:11.409Z,18.65
2023-02-17T05:25:41.811Z,19.73
2023-02-17T05:28:12.071Z,18.73
2023-02-17T05:30:42.490Z,19.23
2023-02-17T05:33:12.659Z,18.73
2023-02-17T05:35:43.358Z,20.33
2023-02-17T05:38:13.643Z,19.67
2023-02-17T05:40:44.392Z,19.70
2023-02-17T05:43:14.857Z,17.58
2023-02-17T05:45:45.488Z,17.63
2023-02-17T05:48:15.976Z,18.17
2023-02-17T05:50:46.412Z,17.55
2023-02-17T05:53:16.885Z,16.05
2023-02-17T05:55:48.812Z,17.45
2023-02-17T05:58:19.134Z,18.88
2023-02-17T06:00:49.670Z,20.08
2023-02-17T06:03:19.985Z,18.58
2023-02-17T06:05:50.451Z,17.75
2023-02-17T06:08:20.987Z,17.98
2023-02-17T06:10:51.265Z,18.35
2023-02-17T06:13:22.408Z,17.00
2023-02-17T06:15:52.917Z,20.23
2023-02-17T06:18:23.145Z,20.75
2023-02-17T06:20:56.152Z,18.90
2023-02-17T06:23:27.480Z,20.00
2023-02-17T06:25:58.287Z,19.10
2023-02-17T06:28:28.513Z,19.48
2023-02-17T06:30:58.682Z,20.83
2023-02-17T06:33:29.235Z,18.33
2023-02-17T06:35:59.452Z,19.45
2023-02-17T06:38:30.008Z,27.27
2023-02-17T06:41:00.282Z,25.88
2023-02-17T06:43:30.801Z,25.00
2023-02-17T06:46:01.276Z,23.70
2023-02-17T06:48:31.875Z,23.90
2023-02-17T06:51:02.976Z,27.60
2023-02-17T06:53:32.906Z,31.35
2023-02-17T06:56:03.758Z,32.25
2023-02-17T06:58:34.191Z,26.65
2023-02-17T07:01:05.085Z,24.40
2023-02-17T07:03:35.320Z,23.73
2023-02-17T07:06:06.470Z,25.20
2023-02-17T07:08:37.206Z,31.40
2023-02-17T07:11:12.844Z,31.50
2023-02-17T07:13:43.560Z,28.60
2023-02-17T07:16:23.963Z,24.73
2023-02-17T07:18:57.664Z,24.52
2023-02-17T07:21:27.882Z,23.50
2023-02-17T07:23:58.750Z,23.48
2023-02-17T07:26:29.494Z,28.40
2023-02-17T07:28:59.747Z,28.50
2023-02-17T07:31:32.366Z,26.23
2023-02-17T07:34:05.030Z,24.52
2023-02-17T07:36:35.175Z,22.65
2023-02-17T07:39:10.740Z,26.02
2023-02-17T07:41:39.563Z,27.60
2023-02-17T07:44:12.416Z,36.38
2023-02-17T07:46:40.915Z,40.88
2023-02-17T07:49:09.224Z,41.28
2023-02-17T07:51:37.571Z,47.53
2023-02-17T07:54:06.984Z,43.95
2023-02-17T07:56:36.388Z,43.15
2023-02-17T07:59:04.578Z,42.60
2023-02-17T08:01:32.951Z,40.85
2023-02-17T08:04:01.255Z,41.85
2023-02-17T08:06:29.588Z,38.70
2023-02-17T08:08:58.245Z,35.10
2023-02-17T08:11:26.947Z,34.63
2023-02-17T08:13:55.276Z,31.42
2023-02-17T08:16:23.496Z,28.63
2023-02-17T08:18:51.690Z,25.85
2023-02-17T08:21:19.980Z,18.15
2023-02-17T08:23:48.639Z,18.58
2023-02-17T08:26:17.174Z,18.13
2023-02-17T08:28:46.123Z,18.73
2023-02-17T08:31:29.272Z,20.10
2023-02-17T08:33:58.187Z,21.38
2023-02-17T08:36:26.450Z,21.65
2023-02-17T08:38:55.656Z,20.58
2023-02-17T08:41:28.362Z,21.02
2023-02-17T08:44:07.671Z,21.58
2023-02-17T08:46:37.085Z,20.67
2023-02-17T08:49:07.009Z,19.30
2023-02-17T08:51:35.881Z,21.08
2023-02-17T08:54:06.506Z,19.90
2023-02-17T08:56:36.912Z,19.42
2023-02-17T08:59:06.482Z,20.50
2023-02-17T09:01:35.222Z,22.00
2023-02-17T09:04:06.132Z,21.80
2023-02-17T09:06:54.930Z,25.60
2023-02-17T09:09:25.208Z,26.55
2023-02-17T09:11:54.465Z,24.23
2023-02-17T09:14:23.026Z,25.58
2023-02-17T09:16:55.975Z,26.35
2023-02-17T09:19:25.113Z,31.20
2023-02-17T09:21:53.832Z,32.03
2023-02-17T09:24:22.388Z,27.02
2023-02-17T09:26:50.713Z,24.70
2023-02-17T09:29:18.911Z,23.60
2023-02-17T09:31:47.404Z,24.42
2023-02-17T09:34:15.717Z,23.75
2023-02-17T09:36:44.094Z,22.65
2023-02-17T09:39:13.672Z,22.48
2023-02-17T09:41:51.981Z,24.92
2023-02-17T09:44:46.436Z,23.02
2023-02-17T09:47:26.669Z,22.38
2023-02-17T09:50:10.200Z,26.38
2023-02-17T09:52:42.617Z,23.60
2023-02-17T09:55:24.303Z,22.20
2023-02-17T09:58:00.077Z,21.85
2023-02-17T10:01:00.642Z,21.98
2023-02-17T10:03:49.064Z,23.92
2023-02-17T10:06:28.210Z,21.50
2023-02-17T10:09:18.517Z,22.98
2023-02-17T10:12:37.636Z,22.73
2023-02-17T10:15:17.664Z,23.25
2023-02-17T10:18:29.202Z,28.20
2023-02-17T10:21:05.935Z,25.40
2023-02-17T10:23:35.255Z,29.27
2023-02-17T10:26:25.166Z,27.33
2023-02-17T10:28:54.500Z,27.30
2023-02-17T10:31:25.548Z,30.45
2023-02-17T10:34:03.981Z,27.23
2023-02-17T10:37:11.317Z,24.05
2023-02-17T10:39:51.354Z,54.33
2023-02-17T10:42:38.772Z,32.67
2023-02-17T10:45:13.790Z,43.53
2023-02-17T10:47:42.416Z,22.83
2023-02-17T10:50:23.985Z,29.27
2023-02-17T10:52:53.875Z,32.13
2023-02-17T10:55:36.627Z,28.17
2023-02-17T10:58:29.447Z,30.00
2023-02-17T11:00:58.109Z,24.13
2023-02-17T11:03:28.298Z,20.27
2023-02-17T11:06:02.732Z,22.70
2023-02-17T11:08:42.269Z,24.52
2023-02-17T11:11:30.982Z,22.63
2023-02-17T11:14:29.883Z,19.17
2023-02-17T11:17:04.572Z,19.67
2023-02-17T11:19:37.123Z,18.75
2023-02-17T11:22:32.010Z,20.45
2023-02-17T11:25:08.442Z,20.20
2023-02-17T11:27:36.715Z,22.27
2023-02-17T11:30:17.567Z,19.92
2023-02-17T11:32:46.017Z,22.08
2023-02-17T11:35:39.398Z,24.38
2023-02-17T11:38:17.325Z,23.05
2023-02-17T11:40:58.316Z,20.80
2023-02-17T11:43:30.803Z,19.70
2023-02-17T11:46:29.910Z,21.23
2023-02-17T11:49:35.169Z,17.98
2023-02-17T11:52:24.063Z,18.50
2023-02-17T11:55:16.727Z,15.98
2023-02-17T11:57:59.648Z,14.88
2023-02-17T12:00:46.149Z,16.98
2023-02-17T12:03:36.854Z,15.30
2023-02-17T12:06:49.177Z,18.38
2023-02-17T12:10:08.120Z,13.60
2023-02-17T12:12:48.160Z,15.57
2023-02-17T12:15:54.448Z,13.65
2023-02-17T12:18:54.748Z,16.58
2023-02-17T12:21:32.300Z,21.52
2023-02-17T12:24:31.169Z,16.13
2023-02-17T12:27:21.037Z,15.25
2023-02-17T12:30:07.807Z,15.20
2023-02-17T12:32:39.359Z,14.60
2023-02-17T12:35:24.528Z,17.38
2023-02-17T12:38:04.435Z,17.85
2023-02-17T12:40:40.134Z,16.38
2023-02-17T12:43:38.603Z,14.25
2023-02-17T12:46:15.697Z,14.30
2023-02-17T12:49:07.654Z,17.48
2023-02-17T12:51:58.332Z,16.67
2023-02-17T12:55:10.889Z,18.13
2023-02-17T13:00:45.444Z,16.52
2023-02-17T13:03:13.874Z,20.20
2023-02-17T13:05:48.355Z,29.33
2023-02-17T13:08:25.235Z,16.92
2023-02-17T13:11:05.313Z,18.17
2023-02-17T13:13:35.643Z,14.57
2023-02-17T13:16:18.742Z,18.67
2023-02-17T13:18:50.454Z,19.48
2023-02-17T13:21:21.870Z,18.33
2023-02-17T13:24:01.192Z,17.05
2023-02-17T13:26:35.178Z,26.92
2023-02-17T13:29:24.903Z,17.92
2023-02-17T13:32:02.563Z,16.50
2023-02-17T13:34:41.638Z,16.25
2023-02-17T13:37:36.112Z,15.73
2023-02-17T13:40:24.167Z,30.98
2023-02-17T13:43:08.524Z,30.67
2023-02-17T13:45:47.636Z,13.60
2023-02-17T13:48:21.922Z,23.38
2023-02-17T13:50:56.349Z,27.98
2023-02-17T13:53:35.498Z,27.27
2023-02-17T13:56:07.707Z,18.50
2023-02-17T13:58:39.026Z,28.75
2023-02-17T14:01:15.313Z,31.47
2023-02-17T14:03:46.781Z,28.75
2023-02-17T14:06:39.191Z,19.08
2023-02-17T14:09:24.416Z,17.00
2023-02-17T14:11:54.385Z,25.27
2023-02-17T14:14:30.200Z,16.48
2023-02-17T14:17:14.579Z,36.83
2023-02-17T14:19:50.145Z,24.20
2023-02-17T14:22:30.569Z,27.55
2023-02-17T14:25:13.467Z,15.75
2023-02-17T14:27:44.183Z,57.00
2023-02-17T14:30:27.965Z,18.80
2023-02-17T14:33:14.680Z,49.42
2023-02-17T14:36:03.456Z,14.70
2023-02-17T14:38:35.161Z,15.18
2023-02-17T14:41:07.451Z,17.92
2023-02-17T14:43:36.628Z,36.45
2023-02-17T14:46:05.306Z,35.17
2023-02-17T14:48:35.113Z,42.97
2023-02-17T14:51:03.568Z,27.25
2023-02-17T14:53:34.128Z,22.55
2023-02-17T14:56:09.248Z,18.90
2023-02-17T14:58:37.774Z,18.50
2023-02-17T15:01:06.318Z,15.27
2023-02-17T15:03:34.844Z,22.45
2023-02-17T15:06:03.201Z,27.92
2023-02-17T15:08:35.172Z,18.25
2023-02-17T15:13:31.408Z,24.60
2023-02-17T15:16:02.503Z,18.45
2023-02-17T15:18:30.900Z,18.48
2023-02-17T15:20:59.168Z,23.70
2023-02-17T15:23:32.561Z,16.52
2023-02-17T15:26:00.729Z,25.65
2023-02-17T15:28:29.136Z,17.52
2023-02-17T15:30:57.659Z,16.40
2023-02-17T15:33:26.061Z,30.30
2023-02-17T15:35:55.193Z,13.27
2023-02-17T15:38:24.912Z,12.82
2023-02-17T15:40:53.499Z,15.07
2023-02-17T15:43:23.661Z,16.33
2023-02-17T15:45:51.907Z,13.57
2023-02-17T15:48:29.146Z,19.98
2023-02-17T15:50:57.407Z,17.95
2023-02-17T15:53:25.706Z,13.98
2023-02-17T15:55:54.021Z,15.00
2023-02-17T15:58:23.640Z,15.70
2023-02-17T16:00:52.044Z,15.25
2023-02-17T16:03:20.358Z,18.88
2023-02-17T16:05:48.757Z,14.10
2023-02-17T16:08:16.906Z,16.02
2023-02-17T16:10:45.515Z,14.55
2023-02-17T16:13:16.488Z,14.27
2023-02-17T16:15:47.967Z,12.53
2023-02-17T16:18:23.922Z,32.58
2023-02-17T16:20:52.908Z,16.05
2023-02-17T16:23:21.019Z,16.92
2023-02-17T16:25:50.875Z,15.70
2023-02-17T16:28:21.528Z,21.85
2023-02-17T16:30:50.380Z,18.33
2023-02-17T16:33:19.580Z,22.52
2023-02-17T16:35:50.225Z,16.17
2023-02-17T16:38:24.526Z,15.90
2023-02-17T16:40:53.665Z,16.65
2023-02-17T16:43:25.136Z,15.07
2023-02-17T16:45:57.174Z,26.83
2023-02-17T16:48:27.948Z,13.82
2023-02-17T16:50:56.687Z,13.80
2023-02-17T16:53:24.874Z,16.65
2023-02-17T16:55:55.396Z,30.42
2023-02-17T16:58:26.045Z,17.85
2023-02-17T17:00:55.870Z,16.25
2023-02-17T17:03:24.198Z,20.17
2023-02-17T17:05:54.345Z,20.67
2023-02-17T17:08:22.780Z,17.90
2023-02-17T17:10:51.102Z,21.85
2023-02-17T17:13:19.350Z,25.25
2023-02-17T17:15:47.552Z,23.42
2023-02-17T17:18:22.334Z,18.65
2023-02-17T17:20:51.014Z,17.92
2023-02-17T17:23:19.164Z,18.45
2023-02-17T17:25:47.681Z,16.92
2023-02-17T17:28:18.167Z,16.67
2023-02-17T17:30:47.421Z,21.55
2023-02-17T17:33:16.232Z,22.73
2023-02-17T17:35:44.853Z,16.65
2023-02-17T17:38:16.425Z,19.30
2023-02-17T17:40:52.477Z,18.88
2023-02-17T17:43:22.345Z,25.83
2023-02-17T17:45:51.919Z,18.58
2023-02-17T17:48:20.890Z,20.98
2023-02-17T17:50:51.827Z,16.80
2023-02-17T17:53:20.257Z,20.17
2023-02-17T17:55:48.521Z,16.23
2023-02-17T17:58:16.930Z,16.85
2023-02-17T18:00:45.421Z,17.25
2023-02-17T18:03:13.838Z,19.70
2023-02-17T18:05:42.190Z,25.23
2023-02-17T18:08:10.560Z,20.00
2023-02-17T18:10:40.440Z,17.15
2023-02-17T18:13:13.273Z,48.00
2023-02-17T18:15:43.275Z,39.92
2023-02-17T18:18:13.327Z,26.05
2023-02-17T18:20:41.708Z,21.55
2023-02-17T18:23:09.931Z,33.88
2023-02-17T18:25:38.307Z,21.98
2023-02-17T18:28:06.702Z,23.23
2023-02-17T18:30:35.389Z,19.95
2023-02-17T18:33:04.705Z,23.83
2023-02-17T18:35:37.758Z,23.85
2023-02-17T18:38:06.043Z,23.52
2023-02-17T18:40:37.812Z,24.67
2023-02-17T18:43:06.305Z,25.15
2023-02-17T18:45:34.965Z,28.30
2023-02-17T18:48:03.250Z,35.45
2023-02-17T18:50:31.572Z,40.80
2023-02-17T18:53:00.390Z,30.80
2023-02-17T18:55:28.791Z,29.50
2023-02-17T18:57:57.255Z,23.83
2023-02-17T19:00:25.902Z,24.90
2023-02-17T19:02:54.211Z,25.75
2023-02-17T19:05:22.838Z,23.73
2023-02-17T19:07:52.280Z,32.38
2023-02-17T19:10:20.828Z,20.75
2023-02-17T19:12:49.201Z,16.20
2023-02-17T19:15:17.593Z,65.05
2023-02-17T19:17:46.034Z,155.10
2023-02-17T19:20:14.808Z,80.70
2023-02-17T19:22:43.322Z,30.48
2023-02-17T19:25:11.637Z,39.80
2023-02-17T19:27:41.233Z,92.93
2023-02-17T19:30:11.270Z,106.22
2023-02-17T19:32:39.758Z,137.35
2023-02-17T19:35:10.021Z,116.07
2023-02-17T19:37:39.969Z,87.88
2023-02-17T19:40:08.847Z,185.30
2023-02-17T19:42:37.621Z,156.02
2023-02-17T19:45:06.611Z,116.32
2023-02-17T19:47:34.849Z,63.38
2023-02-17T19:50:03.203Z,93.03
2023-02-17T19:52:31.618Z,222.10
2023-02-17T19:55:00.018Z,133.93
2023-02-17T19:57:28.234Z,137.15
2023-02-17T19:59:56.592Z,124.55
2023-02-17T20:02:24.860Z,101.10
2023-02-17T20:04:53.336Z,51.80
2023-02-17T20:07:21.556Z,43.85
2023-02-17T20:09:49.807Z,108.72
2023-02-17T20:12:18.299Z,86.53
2023-02-17T20:14:46.776Z,85.07
2023-02-17T20:17:15.853Z,91.55
2023-02-17T20:19:44.224Z,94.57
2023-02-17T20:22:12.750Z,260.50
2023-02-17T20:24:41.182Z,293.40
2023-02-17T20:27:09.622Z,114.82
2023-02-17T20:29:38.015Z,121.78
2023-02-17T20:32:06.941Z,171.88
2023-02-17T20:34:37.999Z,159.18
2023-02-17T20:37:07.292Z,147.73
2023-02-17T20:39:36.352Z,101.38
2023-02-17T20:42:05.329Z,137.60
2023-02-17T20:44:34.038Z,126.50
2023-02-17T20:47:02.457Z,130.10
2023-02-17T20:49:30.750Z,137.57
2023-02-17T20:51:59.048Z,131.23
2023-02-17T20:54:27.403Z,114.55
2023-02-17T20:56:56.922Z,114.90
2023-02-17T20:59:25.336Z,97.93
2023-02-17T21:01:53.629Z,114.30
2023-02-17T21:04:21.781Z,211.07
2023-02-17T21:06:50.150Z,196.55
2023-02-17T21:09:19.500Z,122.82
2023-02-17T21:11:48.121Z,105.38
2023-02-17T21:14:16.377Z,125.53
2023-02-17T21:16:45.236Z,112.80
2023-02-17T21:19:13.769Z,118.25
2023-02-17T21:21:42.070Z,118.00
2023-02-17T21:24:10.514Z,96.85
2023-02-17T21:26:39.089Z,87.03
2023-02-17T21:29:07.733Z,83.22
2023-02-17T21:31:36.378Z,90.70
2023-02-17T21:34:05.508Z,84.80
2023-02-17T21:36:34.003Z,81.65
2023-02-17T21:39:02.368Z,97.05
2023-02-17T21:41:31.101Z,104.07
2023-02-17T21:44:00.492Z,98.57
2023-02-17T21:46:29.908Z,95.32
2023-02-17T21:49:00.378Z,61.70
2023-02-17T21:51:29.417Z,63.17
2023-02-17T21:53:57.632Z,59.30
2023-02-17T21:56:26.312Z,71.30
2023-02-17T21:58:55.862Z,67.57
2023-02-17T22:01:26.122Z,67.90
2023-02-17T22:03:55.339Z,66.63
2023-02-17T22:06:28.984Z,62.60
2023-02-17T22:08:58.488Z,62.15
2023-02-17T22:11:32.779Z,48.63
2023-02-17T22:14:04.172Z,46.50
2023-02-17T22:16:35.487Z,43.75
2023-02-17T22:19:07.987Z,43.70
2023-02-17T22:21:36.323Z,63.80
2023-02-17T22:24:04.723Z,70.10
2023-02-17T22:26:33.341Z,71.60
2023-02-17T22:29:04.987Z,61.80
2023-02-17T22:31:35.063Z,64.57
2023-02-17T22:34:09.274Z,69.68
2023-02-17T22:36:42.703Z,72.20
2023-02-17T22:39:11.474Z,96.47
2023-02-17T22:41:41.714Z,93.22
2023-02-17T22:44:10.475Z,76.35
2023-02-17T22:46:38.730Z,61.72
2023-02-17T22:49:07.517Z,79.80
2023-02-17T22:51:43.631Z,90.65
2023-02-17T22:54:12.238Z,179.18
2023-02-17T22:56:40.742Z,145.20
2023-02-17T22:59:18.817Z,133.25
2023-02-17T23:01:47.218Z,94.55
2023-02-17T23:04:15.971Z,83.40
2023-02-17T23:06:45.277Z,81.20
2023-02-17T23:09:19.503Z,96.38
2023-02-17T23:11:47.865Z,66.53
2023-02-17T23:14:27.567Z,92.82
2023-02-17T23:17:00.177Z,113.40
2023-02-17T23:19:29.670Z,108.13
2023-02-17T23:22:01.233Z,113.20
2023-02-17T23:24:30.039Z,128.77
2023-02-17T23:27:07.495Z,92.80
2023-02-17T23:29:35.966Z,96.78
2023-02-17T23:32:04.517Z,109.50
2023-02-17T23:34:33.534Z,146.55
2023-02-17T23:37:02.883Z,136.73
2023-02-17T23:39:31.824Z,131.07
2023-02-17T23:42:00.230Z,116.30
2023-02-17T23:44:28.761Z,115.90
2023-02-17T23:46:57.081Z,125.88
2023-02-17T23:49:25.366Z,132.60
2023-02-17T23:51:53.809Z,92.93
2023-02-17T23:54:22.840Z,76.30
2023-02-17T23:56:51.310Z,91.55
2023-02-17T23:59:19.743Z,120.40
